To NAV CANADA Home Page Login to a new session Search on AWWS site Feedback and Comments Disclaimer Vers la page française équivalente Tips FAQ What's new on the site To the Forecasts and Observations / NOTAM section To "File a Flight Plan" website Publications and other links Update of the User's profile FIC Telephone Numbers My Weather Data Folder Route Weather Data Regional Weather Data Local Weather Data To the Forecasts and Observations / NOTAM section
Request Generated 06/26/2017 at 22:34:52 UTC . Weather information available at that time is displayed.

METAR/TAF

KITCHENER/WATERLOO/ON    (show WxCam)

METAR CYKF 262200Z AUTO 29009G15KT 9SM BKN055 BKN069 18/08 A2992 RMK
LTNG DIST SE S SW SLP134 DENSITY ALT 1600FT=
METAR CYKF 262100Z AUTO 29011G17KT 230V310 9SM SCT055 SCT220 20/08
A2993 RMK SLP136 DENSITY ALT 1800FT=
METAR CYKF 262000Z AUTO 29016G22KT 240V300 9SM SCT047 SCT060 BKN085
BKN240 19/08 A2994 RMK SLP140 DENSITY ALT 1700FT=

TAF AMD CYKF 262133Z 2621/2708 29007G17KT P6SM SCT050 SCT220
FM262200 27015G29KT P6SM BKN090 TEMPO 2622/2624 P6SM -SHRA BKN050
PROB40 2622/2624 VRB20G30KT 2SM +TSRA BR BKN040CB
FM270000 25014G24KT P6SM BKN100 TEMPO 2700/2703 SCT060
FM270300 23007KT P6SM FEW060
FM270600 26007KT P6SM SKC
RMK FCST BASED ON AUTO OBS. NXT FCST BY 270200Z=
Your time UTC time
Weather data provided by Environment Canada and NAV CANADA